METAR Data
IDs: Format: Raw Decoded Include TAF

Data at: 0201 UTC 01 Mar 2021

KROS 010155Z AUTO 27006KT 10SM CLR M07/M13 A3000 RMK AO2 T10751135